sensor_id;sensor_type;location;lat;lon;timestamp;temperature;humidity
38854;DHT22;24606;51.992;4.198;2024-02-21T00:04:36;9.70;99.90
38854;DHT22;24606;51.992;4.198;2024-02-21T00:09:45;9.70;99.90
38854;DHT22;24606;51.992;4.198;2024-02-21T00:14:49;9.80;99.90
38854;DHT22;24606;51.992;4.198;2024-02-21T00:19:51;10.00;99.90
38854;DHT22;24606;51.992;4.198;2024-02-21T00:24:53;9.80;99.90
38854;DHT22;24606;51.992;4.198;2024-02-21T00:29:57;9.60;99.90
38854;DHT22;24606;51.992;4.198;2024-02-21T00:34:58;9.80;99.90
38854;DHT22;24606;51.992;4.198;2024-02-21T00:40:01;9.80;99.90
38854;DHT22;24606;51.992;4.198;2024-02-21T00:45:06;9.60;99.90
38854;DHT22;24606;51.992;4.198;2024-02-21T00:50:09;9.50;99.90
38854;DHT22;24606;51.992;4.198;2024-02-21T00:55:11;9.80;99.90
38854;DHT22;24606;51.992;4.198;2024-02-21T01:00:15;9.60;99.90
38854;DHT22;24606;51.992;4.198;2024-02-21T01:05:17;9.50;99.90
38854;DHT22;24606;51.992;4.198;2024-02-21T01:10:20;9.60;99.90
38854;DHT22;24606;51.992;4.198;2024-02-21T01:15:25;9.50;99.90
38854;DHT22;24606;51.992;4.198;2024-02-21T01:20:27;9.50;99.90
38854;DHT22;24606;51.992;4.198;2024-02-21T01:25:29;9.60;99.90
38854;DHT22;24606;51.992;4.198;2024-02-21T01:30:32;9.60;99.90
38854;DHT22;24606;51.992;4.198;2024-02-21T01:35:34;9.60;99.90
38854;DHT22;24606;51.992;4.198;2024-02-21T01:40:36;9.50;99.90
38854;DHT22;24606;51.992;4.198;2024-02-21T01:45:40;9.70;99.90
38854;DHT22;24606;51.992;4.198;2024-02-21T01:50:42;9.50;99.90
38854;DHT22;24606;51.992;4.198;2024-02-21T01:55:45;9.80;99.90
38854;DHT22;24606;51.992;4.198;2024-02-21T02:00:48;9.80;99.90
38854;DHT22;24606;51.992;4.198;2024-02-21T02:05:51;9.80;99.90
38854;DHT22;24606;51.992;4.198;2024-02-21T02:10:54;9.60;99.90
38854;DHT22;24606;51.992;4.198;2024-02-21T02:15:57;9.90;99.90
38854;DHT22;24606;51.992;4.198;2024-02-21T02:20:59;9.60;99.90
38854;DHT22;24606;51.992;4.198;2024-02-21T02:26:03;9.70;99.90
38854;DHT22;24606;51.992;4.198;2024-02-21T02:31:07;9.50;99.90
38854;DHT22;24606;51.992;4.198;2024-02-21T02:36:09;9.60;99.90
38854;DHT22;24606;51.992;4.198;2024-02-21T02:41:13;9.40;99.90
38854;DHT22;24606;51.992;4.198;2024-02-21T02:46:16;9.40;99.90
38854;DHT22;24606;51.992;4.198;2024-02-21T02:51:18;9.80;99.90
38854;DHT22;24606;51.992;4.198;2024-02-21T02:56:22;9.40;99.90
38854;DHT22;24606;51.992;4.198;2024-02-21T03:01:24;9.50;99.90
38854;DHT22;24606;51.992;4.198;2024-02-21T03:06:26;9.60;99.90
38854;DHT22;24606;51.992;4.198;2024-02-21T03:11:29;9.60;99.90
38854;DHT22;24606;51.992;4.198;2024-02-21T03:16:31;9.50;99.90
38854;DHT22;24606;51.992;4.198;2024-02-21T03:21:33;9.60;99.90
38854;DHT22;24606;51.992;4.198;2024-02-21T03:26:37;9.80;99.90
38854;DHT22;24606;51.992;4.198;2024-02-21T03:31:39;9.60;99.90
38854;DHT22;24606;51.992;4.198;2024-02-21T03:36:41;9.60;99.90
38854;DHT22;24606;51.992;4.198;2024-02-21T03:41:44;9.50;99.90
38854;DHT22;24606;51.992;4.198;2024-02-21T03:46:46;9.60;99.90
38854;DHT22;24606;51.992;4.198;2024-02-21T03:51:48;9.60;99.90
38854;DHT22;24606;51.992;4.198;2024-02-21T03:56:52;9.90;99.90
38854;DHT22;24606;51.992;4.198;2024-02-21T04:15:36;9.60;99.90
38854;DHT22;24606;51.992;4.198;2024-02-21T04:20:40;9.90;99.90
38854;DHT22;24606;51.992;4.198;2024-02-21T04:25:42;9.70;99.90
38854;DHT22;24606;51.992;4.198;2024-02-21T04:30:45;9.60;99.90
38854;DHT22;24606;51.992;4.198;2024-02-21T04:35:48;9.80;99.90
38854;DHT22;24606;51.992;4.198;2024-02-21T04:40:50;9.70;99.90
38854;DHT22;24606;51.992;4.198;2024-02-21T04:45:54;9.70;99.90
38854;DHT22;24606;51.992;4.198;2024-02-21T04:50:56;10.30;99.90
38854;DHT22;24606;51.992;4.198;2024-02-21T04:56:00;10.00;99.90
38854;DHT22;24606;51.992;4.198;2024-02-21T05:01:03;10.20;99.90
38854;DHT22;24606;51.992;4.198;2024-02-21T05:06:05;10.20;99.90
38854;DHT22;24606;51.992;4.198;2024-02-21T05:11:08;10.10;99.90
38854;DHT22;24606;51.992;4.198;2024-02-21T05:16:11;10.10;99.90
38854;DHT22;24606;51.992;4.198;2024-02-21T05:21:13;9.80;99.90
38854;DHT22;24606;51.992;4.198;2024-02-21T05:26:20;10.80;99.90
38854;DHT22;24606;51.992;4.198;2024-02-21T05:31:26;9.90;99.90
38854;DHT22;24606;51.992;4.198;2024-02-21T05:36:28;10.30;99.90
38854;DHT22;24606;51.992;4.198;2024-02-21T05:41:31;10.60;99.90
38854;DHT22;24606;51.992;4.198;2024-02-21T05:46:34;11.40;99.90
38854;DHT22;24606;51.992;4.198;2024-02-21T05:51:36;10.90;99.90
38854;DHT22;24606;51.992;4.198;2024-02-21T05:56:38;10.50;99.90
38854;DHT22;24606;51.992;4.198;2024-02-21T06:01:42;11.10;99.90
38854;DHT22;24606;51.992;4.198;2024-02-21T06:06:45;11.00;99.90
38854;DHT22;24606;51.992;4.198;2024-02-21T06:11:47;10.20;99.90
38854;DHT22;24606;51.992;4.198;2024-02-21T06:16:51;9.60;99.90
38854;DHT22;24606;51.992;4.198;2024-02-21T06:21:53;9.90;99.90
38854;DHT22;24606;51.992;4.198;2024-02-21T06:26:55;9.60;99.90
38854;DHT22;24606;51.992;4.198;2024-02-21T06:31:59;10.00;99.90
38854;DHT22;24606;51.992;4.198;2024-02-21T06:37:01;10.10;99.90
38854;DHT22;24606;51.992;4.198;2024-02-21T06:42:03;10.10;99.90
38854;DHT22;24606;51.992;4.198;2024-02-21T06:47:09;11.80;99.90
38854;DHT22;24606;51.992;4.198;2024-02-21T06:52:11;11.70;99.90
38854;DHT22;24606;51.992;4.198;2024-02-21T06:57:17;11.50;99.90
38854;DHT22;24606;51.992;4.198;2024-02-21T07:02:20;10.90;99.90
38854;DHT22;24606;51.992;4.198;2024-02-21T07:07:23;11.40;99.90
38854;DHT22;24606;51.992;4.198;2024-02-21T07:12:25;11.50;99.90
38854;DHT22;24606;51.992;4.198;2024-02-21T07:17:28;11.30;99.90
38854;DHT22;24606;51.992;4.198;2024-02-21T07:22:30;11.30;99.90
38854;DHT22;24606;51.992;4.198;2024-02-21T07:27:32;12.20;99.90
38854;DHT22;24606;51.992;4.198;2024-02-21T07:32:36;11.10;99.90
38854;DHT22;24606;51.992;4.198;2024-02-21T07:37:38;12.30;99.90
38854;DHT22;24606;51.992;4.198;2024-02-21T07:42:40;12.10;99.90
38854;DHT22;24606;51.992;4.198;2024-02-21T07:47:45;13.00;99.90
38854;DHT22;24606;51.992;4.198;2024-02-21T07:52:47;13.40;99.90
38854;DHT22;24606;51.992;4.198;2024-02-21T07:57:49;14.20;99.90
38854;DHT22;24606;51.992;4.198;2024-02-21T08:02:53;13.90;99.90
38854;DHT22;24606;51.992;4.198;2024-02-21T08:07:55;13.30;99.90
38854;DHT22;24606;51.992;4.198;2024-02-21T08:12:57;13.40;99.90
38854;DHT22;24606;51.992;4.198;2024-02-21T08:18:03;12.90;99.90
38854;DHT22;24606;51.992;4.198;2024-02-21T08:23:06;14.30;99.90
38854;DHT22;24606;51.992;4.198;2024-02-21T08:28:08;13.80;99.90
38854;DHT22;24606;51.992;4.198;2024-02-21T08:33:12;14.10;99.90
38854;DHT22;24606;51.992;4.198;2024-02-21T08:38:14;13.30;99.90
38854;DHT22;24606;51.992;4.198;2024-02-21T08:43:16;14.10;99.90
38854;DHT22;24606;51.992;4.198;2024-02-21T08:48:21;13.80;99.90
38854;DHT22;24606;51.992;4.198;2024-02-21T08:53:24;13.70;99.90
38854;DHT22;24606;51.992;4.198;2024-02-21T08:58:26;13.80;99.90
38854;DHT22;24606;51.992;4.198;2024-02-21T09:03:31;13.70;99.90
38854;DHT22;24606;51.992;4.198;2024-02-21T09:08:33;14.70;99.90
38854;DHT22;24606;51.992;4.198;2024-02-21T09:13:35;14.50;99.90
38854;DHT22;24606;51.992;4.198;2024-02-21T09:18:38;14.40;99.90
38854;DHT22;24606;51.992;4.198;2024-02-21T09:23:40;14.90;99.90
38854;DHT22;24606;51.992;4.198;2024-02-21T09:28:43;15.60;99.90
38854;DHT22;24606;51.992;4.198;2024-02-21T09:33:47;15.20;99.90
38854;DHT22;24606;51.992;4.198;2024-02-21T09:38:49;14.30;99.90
38854;DHT22;24606;51.992;4.198;2024-02-21T09:43:50;14.10;99.90
38854;DHT22;24606;51.992;4.198;2024-02-21T09:49:12;15.00;99.90
38854;DHT22;24606;51.992;4.198;2024-02-21T09:54:15;15.50;99.90
38854;DHT22;24606;51.992;4.198;2024-02-21T09:59:19;15.80;99.90
38854;DHT22;24606;51.992;4.198;2024-02-21T10:04:23;16.10;99.90
38854;DHT22;24606;51.992;4.198;2024-02-21T10:09:26;16.40;99.90
38854;DHT22;24606;51.992;4.198;2024-02-21T10:14:28;16.10;99.90
38854;DHT22;24606;51.992;4.198;2024-02-21T10:19:32;14.30;99.90
38854;DHT22;24606;51.992;4.198;2024-02-21T10:24:34;15.50;99.90
38854;DHT22;24606;51.992;4.198;2024-02-21T10:29:40;15.80;99.90
38854;DHT22;24606;51.992;4.198;2024-02-21T10:34:43;14.70;99.90
38854;DHT22;24606;51.992;4.198;2024-02-21T10:39:46;14.10;99.90
38854;DHT22;24606;51.992;4.198;2024-02-21T10:44:51;14.20;99.90
38854;DHT22;24606;51.992;4.198;2024-02-21T10:50:03;14.50;99.90
38854;DHT22;24606;51.992;4.198;2024-02-21T10:55:10;15.00;99.90
38854;DHT22;24606;51.992;4.198;2024-02-21T11:00:15;15.20;99.90
38854;DHT22;24606;51.992;4.198;2024-02-21T11:05:20;14.60;99.90
38854;DHT22;24606;51.992;4.198;2024-02-21T11:10:24;15.00;99.90
38854;DHT22;24606;51.992;4.198;2024-02-21T11:15:26;15.60;99.90
38854;DHT22;24606;51.992;4.198;2024-02-21T11:20:37;14.40;99.90
38854;DHT22;24606;51.992;4.198;2024-02-21T11:25:39;14.40;99.90
38854;DHT22;24606;51.992;4.198;2024-02-21T11:30:42;14.60;99.90
38854;DHT22;24606;51.992;4.198;2024-02-21T11:35:45;15.00;99.90
38854;DHT22;24606;51.992;4.198;2024-02-21T11:40:47;15.60;99.90
38854;DHT22;24606;51.992;4.198;2024-02-21T11:45:50;13.80;99.90
38854;DHT22;24606;51.992;4.198;2024-02-21T11:50:57;14.70;99.90
38854;DHT22;24606;51.992;4.198;2024-02-21T11:55:59;15.00;99.90
38854;DHT22;24606;51.992;4.198;2024-02-21T12:01:12;14.40;99.90
38854;DHT22;24606;51.992;4.198;2024-02-21T12:06:21;15.20;99.90
38854;DHT22;24606;51.992;4.198;2024-02-21T12:11:23;15.60;99.90
38854;DHT22;24606;51.992;4.198;2024-02-21T12:16:27;16.10;99.90
38854;DHT22;24606;51.992;4.198;2024-02-21T12:21:32;16.00;99.90
38854;DHT22;24606;51.992;4.198;2024-02-21T12:26:37;15.70;99.90
38854;DHT22;24606;51.992;4.198;2024-02-21T12:31:39;15.40;99.90
38854;DHT22;24606;51.992;4.198;2024-02-21T12:36:43;14.60;99.90
38854;DHT22;24606;51.992;4.198;2024-02-21T12:41:48;14.30;99.90
38854;DHT22;24606;51.992;4.198;2024-02-21T12:46:50;14.90;99.90
38854;DHT22;24606;51.992;4.198;2024-02-21T12:51:56;14.70;99.90
38854;DHT22;24606;51.992;4.198;2024-02-21T12:56:58;13.90;99.90
38854;DHT22;24606;51.992;4.198;2024-02-21T13:02:04;13.10;99.90
38854;DHT22;24606;51.992;4.198;2024-02-21T13:07:07;15.10;99.90
38854;DHT22;24606;51.992;4.198;2024-02-21T13:12:09;15.20;99.90
38854;DHT22;24606;51.992;4.198;2024-02-21T13:17:12;14.50;99.90
38854;DHT22;24606;51.992;4.198;2024-02-21T13:22:17;15.20;99.90
38854;DHT22;24606;51.992;4.198;2024-02-21T13:27:23;15.20;99.90
38854;DHT22;24606;51.992;4.198;2024-02-21T13:32:25;15.50;99.90
38854;DHT22;24606;51.992;4.198;2024-02-21T13:37:29;16.30;99.90
38854;DHT22;24606;51.992;4.198;2024-02-21T13:42:31;16.70;99.90
38854;DHT22;24606;51.992;4.198;2024-02-21T13:47:34;16.60;99.90
38854;DHT22;24606;51.992;4.198;2024-02-21T13:52:38;16.90;99.90
38854;DHT22;24606;51.992;4.198;2024-02-21T13:57:40;16.90;99.90
38854;DHT22;24606;51.992;4.198;2024-02-21T14:02:42;16.60;99.90
38854;DHT22;24606;51.992;4.198;2024-02-21T14:07:46;16.60;99.90
38854;DHT22;24606;51.992;4.198;2024-02-21T14:12:48;16.90;99.90
38854;DHT22;24606;51.992;4.198;2024-02-21T14:17:49;17.10;99.90
38854;DHT22;24606;51.992;4.198;2024-02-21T14:22:53;17.00;99.90
38854;DHT22;24606;51.992;4.198;2024-02-21T14:27:55;16.90;99.90
38854;DHT22;24606;51.992;4.198;2024-02-21T14:32:57;16.70;99.90
38854;DHT22;24606;51.992;4.198;2024-02-21T14:38:00;17.20;99.90
38854;DHT22;24606;51.992;4.198;2024-02-21T14:43:03;17.40;99.90
38854;DHT22;24606;51.992;4.198;2024-02-21T14:48:06;17.50;99.90
38854;DHT22;24606;51.992;4.198;2024-02-21T14:53:13;17.40;99.90
38854;DHT22;24606;51.992;4.198;2024-02-21T14:58:15;17.30;99.90
38854;DHT22;24606;51.992;4.198;2024-02-21T15:03:18;17.00;99.90
38854;DHT22;24606;51.992;4.198;2024-02-21T15:08:22;17.50;99.90
38854;DHT22;24606;51.992;4.198;2024-02-21T15:13:24;16.30;99.90
38854;DHT22;24606;51.992;4.198;2024-02-21T15:18:26;15.70;99.90
38854;DHT22;24606;51.992;4.198;2024-02-21T15:23:30;16.80;99.90
38854;DHT22;24606;51.992;4.198;2024-02-21T15:28:32;17.00;99.90
38854;DHT22;24606;51.992;4.198;2024-02-21T15:33:34;17.30;99.90
38854;DHT22;24606;51.992;4.198;2024-02-21T15:38:38;16.40;99.90
38854;DHT22;24606;51.992;4.198;2024-02-21T15:43:41;16.20;99.90
38854;DHT22;24606;51.992;4.198;2024-02-21T15:48:43;16.20;99.90
38854;DHT22;24606;51.992;4.198;2024-02-21T15:53:48;16.30;99.90
38854;DHT22;24606;51.992;4.198;2024-02-21T15:58:50;16.50;99.90
38854;DHT22;24606;51.992;4.198;2024-02-21T16:03:54;17.00;99.90
38854;DHT22;24606;51.992;4.198;2024-02-21T16:08:57;16.80;99.90
38854;DHT22;24606;51.992;4.198;2024-02-21T16:14:00;16.80;99.90
38854;DHT22;24606;51.992;4.198;2024-02-21T16:19:03;16.70;99.90
38854;DHT22;24606;51.992;4.198;2024-02-21T16:24:07;14.70;99.90
38854;DHT22;24606;51.992;4.198;2024-02-21T16:29:09;15.10;99.90
38854;DHT22;24606;51.992;4.198;2024-02-21T16:34:12;15.20;99.90
38854;DHT22;24606;51.992;4.198;2024-02-21T16:39:16;15.10;99.90
38854;DHT22;24606;51.992;4.198;2024-02-21T16:44:18;16.30;99.90
38854;DHT22;24606;51.992;4.198;2024-02-21T16:49:20;15.30;99.90
38854;DHT22;24606;51.992;4.198;2024-02-21T16:54:24;14.60;99.90
38854;DHT22;24606;51.992;4.198;2024-02-21T16:59:27;13.90;99.90
38854;DHT22;24606;51.992;4.198;2024-02-21T17:04:29;13.30;99.90
38854;DHT22;24606;51.992;4.198;2024-02-21T17:09:33;13.00;99.90
38854;DHT22;24606;51.992;4.198;2024-02-21T17:14:37;14.20;99.90
38854;DHT22;24606;51.992;4.198;2024-02-21T17:19:40;14.40;99.90
38854;DHT22;24606;51.992;4.198;2024-02-21T17:24:43;14.40;99.90
38854;DHT22;24606;51.992;4.198;2024-02-21T17:29:45;12.90;99.90
38854;DHT22;24606;51.992;4.198;2024-02-21T17:34:47;12.90;99.90
38854;DHT22;24606;51.992;4.198;2024-02-21T17:39:50;13.60;99.90
38854;DHT22;24606;51.992;4.198;2024-02-21T17:44:53;13.70;99.90
38854;DHT22;24606;51.992;4.198;2024-02-21T17:49:55;13.80;99.90
38854;DHT22;24606;51.992;4.198;2024-02-21T17:55:00;13.70;99.90
38854;DHT22;24606;51.992;4.198;2024-02-21T18:00:06;13.60;99.90
38854;DHT22;24606;51.992;4.198;2024-02-21T18:05:09;12.70;99.90
38854;DHT22;24606;51.992;4.198;2024-02-21T18:10:13;12.80;99.90
38854;DHT22;24606;51.992;4.198;2024-02-21T18:15:15;11.90;99.90
38854;DHT22;24606;51.992;4.198;2024-02-21T18:20:18;13.00;99.90
38854;DHT22;24606;51.992;4.198;2024-02-21T18:25:22;11.20;99.90
38854;DHT22;24606;51.992;4.198;2024-02-21T18:30:26;12.50;99.90
38854;DHT22;24606;51.992;4.198;2024-02-21T18:35:31;11.60;99.90
38854;DHT22;24606;51.992;4.198;2024-02-21T18:40:35;11.90;99.90
38854;DHT22;24606;51.992;4.198;2024-02-21T18:45:38;11.50;99.90
38854;DHT22;24606;51.992;4.198;2024-02-21T18:50:40;11.40;99.90
38854;DHT22;24606;51.992;4.198;2024-02-21T18:55:45;11.20;99.90
38854;DHT22;24606;51.992;4.198;2024-02-21T19:00:50;11.90;99.90
38854;DHT22;24606;51.992;4.198;2024-02-21T19:05:52;11.60;99.90
38854;DHT22;24606;51.992;4.198;2024-02-21T19:11:02;12.00;99.90
38854;DHT22;24606;51.992;4.198;2024-02-21T19:16:05;11.40;99.90
38854;DHT22;24606;51.992;4.198;2024-02-21T19:21:09;11.70;99.90
38854;DHT22;24606;51.992;4.198;2024-02-21T19:26:13;11.20;99.90
38854;DHT22;24606;51.992;4.198;2024-02-21T19:31:15;10.80;99.90
38854;DHT22;24606;51.992;4.198;2024-02-21T19:36:18;11.00;99.90
38854;DHT22;24606;51.992;4.198;2024-02-21T19:41:21;11.20;99.90
38854;DHT22;24606;51.992;4.198;2024-02-21T19:46:23;10.90;99.90
38854;DHT22;24606;51.992;4.198;2024-02-21T19:51:26;11.50;99.90
38854;DHT22;24606;51.992;4.198;2024-02-21T19:56:30;10.40;99.90
38854;DHT22;24606;51.992;4.198;2024-02-21T20:01:33;10.20;99.90
38854;DHT22;24606;51.992;4.198;2024-02-21T20:06:35;10.10;99.90
38854;DHT22;24606;51.992;4.198;2024-02-21T20:11:40;10.40;99.90
38854;DHT22;24606;51.992;4.198;2024-02-21T20:16:42;10.60;99.90
38854;DHT22;24606;51.992;4.198;2024-02-21T20:21:45;10.40;99.90
38854;DHT22;24606;51.992;4.198;2024-02-21T20:26:52;10.50;99.90
38854;DHT22;24606;51.992;4.198;2024-02-21T20:31:58;10.30;99.90
38854;DHT22;24606;51.992;4.198;2024-02-21T20:37:00;10.30;99.90
38854;DHT22;24606;51.992;4.198;2024-02-21T20:42:07;10.00;99.90
38854;DHT22;24606;51.992;4.198;2024-02-21T20:47:10;10.10;99.90
38854;DHT22;24606;51.992;4.198;2024-02-21T20:52:12;10.20;99.90
38854;DHT22;24606;51.992;4.198;2024-02-21T20:57:16;10.10;99.90
38854;DHT22;24606;51.992;4.198;2024-02-21T21:02:18;10.40;99.90
38854;DHT22;24606;51.992;4.198;2024-02-21T21:07:22;10.20;99.90
38854;DHT22;24606;51.992;4.198;2024-02-21T21:12:27;10.20;99.90
38854;DHT22;24606;51.992;4.198;2024-02-21T21:17:34;10.70;99.90
38854;DHT22;24606;51.992;4.198;2024-02-21T21:22:37;10.20;99.90
38854;DHT22;24606;51.992;4.198;2024-02-21T21:27:45;10.40;99.90
38854;DHT22;24606;51.992;4.198;2024-02-21T21:32:47;10.40;99.90
38854;DHT22;24606;51.992;4.198;2024-02-21T21:37:49;10.40;99.90
38854;DHT22;24606;51.992;4.198;2024-02-21T21:42:53;10.40;99.90
38854;DHT22;24606;51.992;4.198;2024-02-21T21:47:55;10.50;99.90
38854;DHT22;24606;51.992;4.198;2024-02-21T21:52:57;10.50;99.90
38854;DHT22;24606;51.992;4.198;2024-02-21T21:58:00;10.70;99.90
38854;DHT22;24606;51.992;4.198;2024-02-21T22:03:05;10.60;99.90
38854;DHT22;24606;51.992;4.198;2024-02-21T22:08:07;10.40;99.90
38854;DHT22;24606;51.992;4.198;2024-02-21T22:13:11;10.40;99.90
38854;DHT22;24606;51.992;4.198;2024-02-21T22:18:13;10.60;99.90
38854;DHT22;24606;51.992;4.198;2024-02-21T22:23:15;10.70;99.90
38854;DHT22;24606;51.992;4.198;2024-02-21T22:28:22;10.80;99.90
38854;DHT22;24606;51.992;4.198;2024-02-21T22:33:24;10.60;99.90
38854;DHT22;24606;51.992;4.198;2024-02-21T22:38:26;10.50;99.90
38854;DHT22;24606;51.992;4.198;2024-02-21T22:43:31;10.40;99.90
38854;DHT22;24606;51.992;4.198;2024-02-21T22:48:34;10.50;99.90
38854;DHT22;24606;51.992;4.198;2024-02-21T22:53:36;10.60;99.90
38854;DHT22;24606;51.992;4.198;2024-02-21T22:58:39;10.40;99.90
38854;DHT22;24606;51.992;4.198;2024-02-21T23:03:41;10.30;99.90
38854;DHT22;24606;51.992;4.198;2024-02-21T23:08:43;10.50;99.90
38854;DHT22;24606;51.992;4.198;2024-02-21T23:13:47;10.30;99.90
38854;DHT22;24606;51.992;4.198;2024-02-21T23:18:49;10.40;99.90
38854;DHT22;24606;51.992;4.198;2024-02-21T23:23:52;10.50;99.90
38854;DHT22;24606;51.992;4.198;2024-02-21T23:28:55;10.50;99.90
38854;DHT22;24606;51.992;4.198;2024-02-21T23:33:58;10.40;99.90
38854;DHT22;24606;51.992;4.198;2024-02-21T23:39:00;10.60;99.90
38854;DHT22;24606;51.992;4.198;2024-02-21T23:44:03;10.30;99.90
38854;DHT22;24606;51.992;4.198;2024-02-21T23:49:05;10.20;99.90
38854;DHT22;24606;51.992;4.198;2024-02-21T23:54:07;10.20;99.90
38854;DHT22;24606;51.992;4.198;2024-02-21T23:59:11;10.40;99.90
